sensor_id;sensor_type;location;lat;lon;timestamp;P1;durP1;ratioP1;P2;durP2;ratioP2
4821;SDS011;2425;47.794;13.068;2023-05-10T00:00:34;2.03;;;1.93;;
4821;SDS011;2425;47.794;13.068;2023-05-10T00:03:00;2.20;;;2.10;;
4821;SDS011;2425;47.794;13.068;2023-05-10T00:05:29;2.20;;;2.10;;
4821;SDS011;2425;47.794;13.068;2023-05-10T00:07:56;2.10;;;2.10;;
4821;SDS011;2425;47.794;13.068;2023-05-10T00:10:24;2.20;;;2.00;;
4821;SDS011;2425;47.794;13.068;2023-05-10T00:12:51;1.70;;;1.70;;
4821;SDS011;2425;47.794;13.068;2023-05-10T00:15:17;2.00;;;2.00;;
4821;SDS011;2425;47.794;13.068;2023-05-10T00:17:44;1.97;;;1.90;;
4821;SDS011;2425;47.794;13.068;2023-05-10T00:20:11;1.90;;;1.80;;
4821;SDS011;2425;47.794;13.068;2023-05-10T00:22:38;1.87;;;1.87;;
4821;SDS011;2425;47.794;13.068;2023-05-10T00:25:05;2.00;;;1.90;;
4821;SDS011;2425;47.794;13.068;2023-05-10T00:27:34;1.80;;;1.80;;
4821;SDS011;2425;47.794;13.068;2023-05-10T00:30:01;2.17;;;2.07;;
4821;SDS011;2425;47.794;13.068;2023-05-10T00:32:27;2.10;;;2.00;;
4821;SDS011;2425;47.794;13.068;2023-05-10T00:34:55;1.80;;;1.80;;
4821;SDS011;2425;47.794;13.068;2023-05-10T00:37:21;2.00;;;2.00;;
4821;SDS011;2425;47.794;13.068;2023-05-10T00:39:48;1.83;;;1.83;;
4821;SDS011;2425;47.794;13.068;2023-05-10T00:42:15;1.83;;;1.83;;
4821;SDS011;2425;47.794;13.068;2023-05-10T00:44:43;2.10;;;2.00;;
4821;SDS011;2425;47.794;13.068;2023-05-10T00:47:09;1.60;;;1.60;;
4821;SDS011;2425;47.794;13.068;2023-05-10T00:49:36;1.97;;;1.90;;
4821;SDS011;2425;47.794;13.068;2023-05-10T00:52:03;1.73;;;1.73;;
4821;SDS011;2425;47.794;13.068;2023-05-10T00:54:30;1.80;;;1.80;;
4821;SDS011;2425;47.794;13.068;2023-05-10T00:56:57;1.73;;;1.73;;
4821;SDS011;2425;47.794;13.068;2023-05-10T00:59:23;1.70;;;1.70;;
4821;SDS011;2425;47.794;13.068;2023-05-10T01:01:52;1.90;;;1.90;;
4821;SDS011;2425;47.794;13.068;2023-05-10T01:04:19;3.23;;;2.00;;
4821;SDS011;2425;47.794;13.068;2023-05-10T01:06:50;1.53;;;1.53;;
4821;SDS011;2425;47.794;13.068;2023-05-10T01:09:17;1.40;;;1.40;;
4821;SDS011;2425;47.794;13.068;2023-05-10T01:11:44;2.00;;;1.90;;
4821;SDS011;2425;47.794;13.068;2023-05-10T01:14:11;1.57;;;1.57;;
4821;SDS011;2425;47.794;13.068;2023-05-10T01:16:38;1.73;;;1.73;;
4821;SDS011;2425;47.794;13.068;2023-05-10T01:19:09;1.70;;;1.70;;
4821;SDS011;2425;47.794;13.068;2023-05-10T01:21:41;2.10;;;2.03;;
4821;SDS011;2425;47.794;13.068;2023-05-10T01:24:12;1.90;;;1.90;;
4821;SDS011;2425;47.794;13.068;2023-05-10T01:29:44;1.70;;;1.70;;
4821;SDS011;2425;47.794;13.068;2023-05-10T01:32:31;2.30;;;2.20;;
4821;SDS011;2425;47.794;13.068;2023-05-10T01:35:02;1.80;;;1.70;;
4821;SDS011;2425;47.794;13.068;2023-05-10T01:37:38;2.00;;;2.00;;
4821;SDS011;2425;47.794;13.068;2023-05-10T01:40:08;1.87;;;1.87;;
4821;SDS011;2425;47.794;13.068;2023-05-10T01:42:40;1.80;;;1.80;;
4821;SDS011;2425;47.794;13.068;2023-05-10T01:45:14;1.70;;;1.70;;
4821;SDS011;2425;47.794;13.068;2023-05-10T01:47:46;1.80;;;1.70;;
4821;SDS011;2425;47.794;13.068;2023-05-10T01:50:18;1.90;;;1.80;;
4821;SDS011;2425;47.794;13.068;2023-05-10T01:52:54;1.53;;;1.53;;
4821;SDS011;2425;47.794;13.068;2023-05-10T01:55:23;1.60;;;1.60;;
4821;SDS011;2425;47.794;13.068;2023-05-10T01:57:52;1.53;;;1.53;;
4821;SDS011;2425;47.794;13.068;2023-05-10T02:00:23;1.40;;;1.40;;
4821;SDS011;2425;47.794;13.068;2023-05-10T02:02:52;1.60;;;1.60;;
4821;SDS011;2425;47.794;13.068;2023-05-10T02:05:19;1.73;;;1.73;;
4821;SDS011;2425;47.794;13.068;2023-05-10T02:07:46;1.70;;;1.70;;
4821;SDS011;2425;47.794;13.068;2023-05-10T02:10:13;1.70;;;1.70;;
4821;SDS011;2425;47.794;13.068;2023-05-10T02:12:41;1.60;;;1.60;;
4821;SDS011;2425;47.794;13.068;2023-05-10T02:15:10;1.70;;;1.70;;
4821;SDS011;2425;47.794;13.068;2023-05-10T02:17:38;1.97;;;1.90;;
4821;SDS011;2425;47.794;13.068;2023-05-10T02:20:07;1.80;;;1.80;;
4821;SDS011;2425;47.794;13.068;2023-05-10T02:22:35;1.80;;;1.80;;
4821;SDS011;2425;47.794;13.068;2023-05-10T02:25:02;1.80;;;1.70;;
4821;SDS011;2425;47.794;13.068;2023-05-10T02:27:30;1.70;;;1.70;;
4821;SDS011;2425;47.794;13.068;2023-05-10T02:29:57;1.57;;;1.57;;
4821;SDS011;2425;47.794;13.068;2023-05-10T02:32:24;1.60;;;1.60;;
4821;SDS011;2425;47.794;13.068;2023-05-10T02:34:52;2.00;;;1.90;;
4821;SDS011;2425;47.794;13.068;2023-05-10T02:37:20;2.87;;;1.87;;
4821;SDS011;2425;47.794;13.068;2023-05-10T02:39:48;1.87;;;1.87;;
4821;SDS011;2425;47.794;13.068;2023-05-10T02:42:16;1.77;;;1.67;;
4821;SDS011;2425;47.794;13.068;2023-05-10T02:44:45;1.47;;;1.47;;
4821;SDS011;2425;47.794;13.068;2023-05-10T02:47:14;2.10;;;2.07;;
4821;SDS011;2425;47.794;13.068;2023-05-10T02:49:41;1.60;;;1.60;;
4821;SDS011;2425;47.794;13.068;2023-05-10T02:52:08;1.80;;;1.80;;
4821;SDS011;2425;47.794;13.068;2023-05-10T02:54:37;1.37;;;1.37;;
4821;SDS011;2425;47.794;13.068;2023-05-10T02:57:07;1.90;;;1.40;;
4821;SDS011;2425;47.794;13.068;2023-05-10T02:59:38;1.50;;;1.50;;
4821;SDS011;2425;47.794;13.068;2023-05-10T03:02:05;1.57;;;1.57;;
4821;SDS011;2425;47.794;13.068;2023-05-10T03:04:31;1.50;;;1.50;;
4821;SDS011;2425;47.794;13.068;2023-05-10T03:06:58;1.30;;;1.30;;
4821;SDS011;2425;47.794;13.068;2023-05-10T03:09:25;1.90;;;1.80;;
4821;SDS011;2425;47.794;13.068;2023-05-10T03:11:55;1.33;;;1.33;;
4821;SDS011;2425;47.794;13.068;2023-05-10T03:14:29;1.60;;;1.60;;
4821;SDS011;2425;47.794;13.068;2023-05-10T03:17:05;1.70;;;1.60;;
4821;SDS011;2425;47.794;13.068;2023-05-10T03:19:36;1.43;;;1.40;;
4821;SDS011;2425;47.794;13.068;2023-05-10T03:22:08;1.30;;;1.20;;
4821;SDS011;2425;47.794;13.068;2023-05-10T03:24:37;1.30;;;1.30;;
4821;SDS011;2425;47.794;13.068;2023-05-10T03:27:11;1.50;;;1.50;;
4821;SDS011;2425;47.794;13.068;2023-05-10T03:29:43;1.20;;;1.20;;
4821;SDS011;2425;47.794;13.068;2023-05-10T03:32:11;1.40;;;1.40;;
4821;SDS011;2425;47.794;13.068;2023-05-10T03:34:41;1.57;;;1.47;;
4821;SDS011;2425;47.794;13.068;2023-05-10T03:37:08;1.50;;;1.50;;
4821;SDS011;2425;47.794;13.068;2023-05-10T03:39:34;1.23;;;1.23;;
4821;SDS011;2425;47.794;13.068;2023-05-10T03:42:01;1.50;;;1.50;;
4821;SDS011;2425;47.794;13.068;2023-05-10T03:44:29;1.30;;;1.30;;
4821;SDS011;2425;47.794;13.068;2023-05-10T03:46:56;1.70;;;1.70;;
4821;SDS011;2425;47.794;13.068;2023-05-10T03:49:23;1.53;;;1.53;;
4821;SDS011;2425;47.794;13.068;2023-05-10T03:51:49;1.27;;;1.27;;
4821;SDS011;2425;47.794;13.068;2023-05-10T03:54:16;1.43;;;1.43;;
4821;SDS011;2425;47.794;13.068;2023-05-10T03:56:43;1.50;;;1.50;;
4821;SDS011;2425;47.794;13.068;2023-05-10T03:59:10;1.30;;;1.30;;
4821;SDS011;2425;47.794;13.068;2023-05-10T04:01:38;1.40;;;1.40;;
4821;SDS011;2425;47.794;13.068;2023-05-10T04:04:04;1.40;;;1.40;;
4821;SDS011;2425;47.794;13.068;2023-05-10T04:06:31;1.30;;;1.30;;
4821;SDS011;2425;47.794;13.068;2023-05-10T04:08:58;1.10;;;1.10;;
4821;SDS011;2425;47.794;13.068;2023-05-10T04:11:28;1.50;;;1.50;;
4821;SDS011;2425;47.794;13.068;2023-05-10T04:13:56;1.20;;;1.20;;
4821;SDS011;2425;47.794;13.068;2023-05-10T04:16:23;1.33;;;1.33;;
4821;SDS011;2425;47.794;13.068;2023-05-10T04:18:51;1.47;;;1.47;;
4821;SDS011;2425;47.794;13.068;2023-05-10T04:21:17;1.13;;;1.13;;
4821;SDS011;2425;47.794;13.068;2023-05-10T04:23:44;1.20;;;1.20;;
4821;SDS011;2425;47.794;13.068;2023-05-10T04:26:12;1.83;;;1.83;;
4821;SDS011;2425;47.794;13.068;2023-05-10T04:28:39;1.10;;;1.10;;
4821;SDS011;2425;47.794;13.068;2023-05-10T04:31:06;1.40;;;1.40;;
4821;SDS011;2425;47.794;13.068;2023-05-10T04:33:33;1.27;;;1.27;;
4821;SDS011;2425;47.794;13.068;2023-05-10T04:36:02;1.40;;;1.40;;
4821;SDS011;2425;47.794;13.068;2023-05-10T04:38:29;1.10;;;1.10;;
4821;SDS011;2425;47.794;13.068;2023-05-10T04:41:03;1.30;;;1.30;;
4821;SDS011;2425;47.794;13.068;2023-05-10T04:43:30;1.30;;;1.30;;
4821;SDS011;2425;47.794;13.068;2023-05-10T04:45:57;1.30;;;1.30;;
4821;SDS011;2425;47.794;13.068;2023-05-10T04:48:23;1.87;;;1.60;;
4821;SDS011;2425;47.794;13.068;2023-05-10T04:50:50;2.40;;;1.63;;
4821;SDS011;2425;47.794;13.068;2023-05-10T04:53:18;2.60;;;1.57;;
4821;SDS011;2425;47.794;13.068;2023-05-10T04:55:45;1.93;;;1.60;;
4821;SDS011;2425;47.794;13.068;2023-05-10T04:58:13;1.27;;;1.27;;
4821;SDS011;2425;47.794;13.068;2023-05-10T05:00:39;1.40;;;1.40;;
4821;SDS011;2425;47.794;13.068;2023-05-10T05:03:06;1.37;;;1.37;;
4821;SDS011;2425;47.794;13.068;2023-05-10T05:05:33;1.50;;;1.43;;
4821;SDS011;2425;47.794;13.068;2023-05-10T05:08:00;1.43;;;1.33;;
4821;SDS011;2425;47.794;13.068;2023-05-10T05:10:28;2.20;;;1.40;;
4821;SDS011;2425;47.794;13.068;2023-05-10T05:12:55;1.30;;;1.30;;
4821;SDS011;2425;47.794;13.068;2023-05-10T05:15:21;3.00;;;1.60;;
4821;SDS011;2425;47.794;13.068;2023-05-10T05:17:48;1.70;;;1.60;;
4821;SDS011;2425;47.794;13.068;2023-05-10T05:20:15;1.60;;;1.53;;
4821;SDS011;2425;47.794;13.068;2023-05-10T05:22:42;6.47;;;1.50;;
4821;SDS011;2425;47.794;13.068;2023-05-10T05:25:08;1.80;;;1.50;;
4821;SDS011;2425;47.794;13.068;2023-05-10T05:27:38;1.50;;;1.40;;
4821;SDS011;2425;47.794;13.068;2023-05-10T05:30:05;1.63;;;1.63;;
4821;SDS011;2425;47.794;13.068;2023-05-10T05:32:32;2.27;;;1.63;;
4821;SDS011;2425;47.794;13.068;2023-05-10T05:34:59;1.87;;;1.77;;
4821;SDS011;2425;47.794;13.068;2023-05-10T05:37:26;1.73;;;1.63;;
4821;SDS011;2425;47.794;13.068;2023-05-10T05:39:52;1.50;;;1.40;;
4821;SDS011;2425;47.794;13.068;2023-05-10T05:42:20;1.80;;;1.70;;
4821;SDS011;2425;47.794;13.068;2023-05-10T05:44:48;1.30;;;1.30;;
4821;SDS011;2425;47.794;13.068;2023-05-10T05:47:14;2.17;;;1.63;;
4821;SDS011;2425;47.794;13.068;2023-05-10T05:49:41;1.80;;;1.70;;
4821;SDS011;2425;47.794;13.068;2023-05-10T05:52:10;1.50;;;1.40;;
4821;SDS011;2425;47.794;13.068;2023-05-10T05:54:37;1.90;;;1.80;;
4821;SDS011;2425;47.794;13.068;2023-05-10T05:57:04;1.70;;;1.60;;
4821;SDS011;2425;47.794;13.068;2023-05-10T05:59:31;1.70;;;1.70;;
4821;SDS011;2425;47.794;13.068;2023-05-10T06:01:59;2.13;;;1.87;;
4821;SDS011;2425;47.794;13.068;2023-05-10T06:04:26;2.60;;;1.80;;
4821;SDS011;2425;47.794;13.068;2023-05-10T06:06:52;2.33;;;2.10;;
4821;SDS011;2425;47.794;13.068;2023-05-10T06:09:19;2.07;;;1.70;;
4821;SDS011;2425;47.794;13.068;2023-05-10T06:11:46;1.80;;;1.70;;
4821;SDS011;2425;47.794;13.068;2023-05-10T06:14:12;1.73;;;1.63;;
4821;SDS011;2425;47.794;13.068;2023-05-10T06:16:39;2.00;;;1.80;;
4821;SDS011;2425;47.794;13.068;2023-05-10T06:19:08;3.23;;;1.90;;
4821;SDS011;2425;47.794;13.068;2023-05-10T06:21:34;2.87;;;1.77;;
4821;SDS011;2425;47.794;13.068;2023-05-10T06:24:01;1.80;;;1.70;;
4821;SDS011;2425;47.794;13.068;2023-05-10T06:26:28;2.77;;;1.50;;
4821;SDS011;2425;47.794;13.068;2023-05-10T06:28:55;2.90;;;1.87;;
4821;SDS011;2425;47.794;13.068;2023-05-10T06:31:21;4.90;;;2.00;;
4821;SDS011;2425;47.794;13.068;2023-05-10T06:33:48;2.20;;;2.10;;
4821;SDS011;2425;47.794;13.068;2023-05-10T06:36:16;1.90;;;1.80;;
4821;SDS011;2425;47.794;13.068;2023-05-10T06:38:43;2.03;;;1.80;;
4821;SDS011;2425;47.794;13.068;2023-05-10T06:41:09;3.60;;;2.10;;
4821;SDS011;2425;47.794;13.068;2023-05-10T06:43:36;2.00;;;1.70;;
4821;SDS011;2425;47.794;13.068;2023-05-10T06:46:05;3.87;;;2.13;;
4821;SDS011;2425;47.794;13.068;2023-05-10T06:48:31;2.00;;;1.97;;
4821;SDS011;2425;47.794;13.068;2023-05-10T06:50:59;2.17;;;2.07;;
4821;SDS011;2425;47.794;13.068;2023-05-10T06:53:27;2.73;;;1.80;;
4821;SDS011;2425;47.794;13.068;2023-05-10T06:55:53;2.03;;;1.90;;
4821;SDS011;2425;47.794;13.068;2023-05-10T06:58:20;2.73;;;1.70;;
4821;SDS011;2425;47.794;13.068;2023-05-10T07:00:47;1.77;;;1.60;;
4821;SDS011;2425;47.794;13.068;2023-05-10T07:03:14;2.40;;;2.20;;
4821;SDS011;2425;47.794;13.068;2023-05-10T07:05:40;2.27;;;2.10;;
4821;SDS011;2425;47.794;13.068;2023-05-10T07:08:07;2.77;;;2.13;;
4821;SDS011;2425;47.794;13.068;2023-05-10T07:10:35;1.83;;;1.73;;
4821;SDS011;2425;47.794;13.068;2023-05-10T07:13:02;2.33;;;2.13;;
4821;SDS011;2425;47.794;13.068;2023-05-10T07:15:29;2.50;;;2.10;;
4821;SDS011;2425;47.794;13.068;2023-05-10T07:17:55;2.10;;;1.90;;
4821;SDS011;2425;47.794;13.068;2023-05-10T07:20:22;3.60;;;2.20;;
4821;SDS011;2425;47.794;13.068;2023-05-10T07:22:49;2.87;;;1.87;;
4821;SDS011;2425;47.794;13.068;2023-05-10T07:25:15;2.13;;;1.93;;
4821;SDS011;2425;47.794;13.068;2023-05-10T07:27:43;4.43;;;2.53;;
4821;SDS011;2425;47.794;13.068;2023-05-10T07:30:11;2.00;;;1.87;;
4821;SDS011;2425;47.794;13.068;2023-05-10T07:32:39;3.03;;;1.93;;
4821;SDS011;2425;47.794;13.068;2023-05-10T07:35:07;3.17;;;2.27;;
4821;SDS011;2425;47.794;13.068;2023-05-10T07:37:34;4.73;;;2.47;;
4821;SDS011;2425;47.794;13.068;2023-05-10T07:40:01;2.20;;;2.10;;
4821;SDS011;2425;47.794;13.068;2023-05-10T07:42:27;2.10;;;1.80;;
4821;SDS011;2425;47.794;13.068;2023-05-10T07:44:55;2.30;;;2.10;;
4821;SDS011;2425;47.794;13.068;2023-05-10T07:47:22;2.13;;;1.93;;
4821;SDS011;2425;47.794;13.068;2023-05-10T07:49:49;3.60;;;2.27;;
4821;SDS011;2425;47.794;13.068;2023-05-10T07:52:16;2.33;;;2.13;;
4821;SDS011;2425;47.794;13.068;2023-05-10T07:54:43;4.10;;;2.03;;
4821;SDS011;2425;47.794;13.068;2023-05-10T07:57:09;2.00;;;1.90;;
4821;SDS011;2425;47.794;13.068;2023-05-10T07:59:36;2.40;;;2.30;;
4821;SDS011;2425;47.794;13.068;2023-05-10T08:02:04;1.90;;;1.80;;
4821;SDS011;2425;47.794;13.068;2023-05-10T08:04:31;1.90;;;1.80;;
4821;SDS011;2425;47.794;13.068;2023-05-10T08:06:58;2.30;;;2.10;;
4821;SDS011;2425;47.794;13.068;2023-05-10T08:09:24;2.03;;;1.90;;
4821;SDS011;2425;47.794;13.068;2023-05-10T08:11:51;2.97;;;2.10;;
4821;SDS011;2425;47.794;13.068;2023-05-10T08:14:18;2.80;;;2.33;;
4821;SDS011;2425;47.794;13.068;2023-05-10T08:16:44;2.90;;;2.60;;
4821;SDS011;2425;47.794;13.068;2023-05-10T08:19:12;2.57;;;2.37;;
4821;SDS011;2425;47.794;13.068;2023-05-10T08:21:39;1.80;;;1.70;;
4821;SDS011;2425;47.794;13.068;2023-05-10T08:24:07;1.80;;;1.70;;
4821;SDS011;2425;47.794;13.068;2023-05-10T08:26:34;2.30;;;2.10;;
4821;SDS011;2425;47.794;13.068;2023-05-10T08:29:00;2.23;;;2.10;;
4821;SDS011;2425;47.794;13.068;2023-05-10T08:31:27;2.30;;;2.10;;
4821;SDS011;2425;47.794;13.068;2023-05-10T08:33:54;3.70;;;2.40;;
4821;SDS011;2425;47.794;13.068;2023-05-10T08:36:22;3.10;;;2.43;;
4821;SDS011;2425;47.794;13.068;2023-05-10T08:38:49;3.90;;;2.33;;
4821;SDS011;2425;47.794;13.068;2023-05-10T08:41:17;3.37;;;2.17;;
4821;SDS011;2425;47.794;13.068;2023-05-10T08:43:46;2.53;;;2.33;;
4821;SDS011;2425;47.794;13.068;2023-05-10T08:46:13;3.80;;;2.50;;
4821;SDS011;2425;47.794;13.068;2023-05-10T08:48:42;2.37;;;2.17;;
4821;SDS011;2425;47.794;13.068;2023-05-10T08:51:09;2.07;;;1.87;;
4821;SDS011;2425;47.794;13.068;2023-05-10T08:53:41;2.83;;;2.43;;
4821;SDS011;2425;47.794;13.068;2023-05-10T08:56:08;3.27;;;2.30;;
4821;SDS011;2425;47.794;13.068;2023-05-10T08:58:34;2.00;;;1.90;;
4821;SDS011;2425;47.794;13.068;2023-05-10T09:01:02;3.40;;;1.97;;
4821;SDS011;2425;47.794;13.068;2023-05-10T09:03:29;3.17;;;2.00;;
4821;SDS011;2425;47.794;13.068;2023-05-10T09:05:56;2.80;;;2.30;;
4821;SDS011;2425;47.794;13.068;2023-05-10T09:08:23;2.30;;;2.10;;
4821;SDS011;2425;47.794;13.068;2023-05-10T09:10:53;2.13;;;1.87;;
4821;SDS011;2425;47.794;13.068;2023-05-10T09:13:20;2.43;;;2.33;;
4821;SDS011;2425;47.794;13.068;2023-05-10T09:15:47;1.80;;;1.70;;
4821;SDS011;2425;47.794;13.068;2023-05-10T09:18:14;2.73;;;1.93;;
4821;SDS011;2425;47.794;13.068;2023-05-10T09:20:41;2.17;;;2.07;;
4821;SDS011;2425;47.794;13.068;2023-05-10T09:23:08;2.57;;;2.10;;
4821;SDS011;2425;47.794;13.068;2023-05-10T09:25:35;2.40;;;2.10;;
4821;SDS011;2425;47.794;13.068;2023-05-10T09:28:07;3.20;;;2.47;;
4821;SDS011;2425;47.794;13.068;2023-05-10T09:30:35;2.23;;;2.13;;
4821;SDS011;2425;47.794;13.068;2023-05-10T09:33:02;2.23;;;2.00;;
4821;SDS011;2425;47.794;13.068;2023-05-10T09:35:29;2.90;;;2.63;;
4821;SDS011;2425;47.794;13.068;2023-05-10T09:37:57;2.60;;;2.27;;
4821;SDS011;2425;47.794;13.068;2023-05-10T09:40:26;4.27;;;2.10;;
4821;SDS011;2425;47.794;13.068;2023-05-10T09:42:54;2.23;;;1.80;;
4821;SDS011;2425;47.794;13.068;2023-05-10T09:45:24;2.20;;;2.00;;
4821;SDS011;2425;47.794;13.068;2023-05-10T09:47:51;2.13;;;1.93;;
4821;SDS011;2425;47.794;13.068;2023-05-10T09:50:18;4.10;;;1.97;;
4821;SDS011;2425;47.794;13.068;2023-05-10T09:52:46;2.60;;;2.30;;
4821;SDS011;2425;47.794;13.068;2023-05-10T09:55:17;2.27;;;1.97;;
4821;SDS011;2425;47.794;13.068;2023-05-10T09:57:45;2.80;;;2.20;;
4821;SDS011;2425;47.794;13.068;2023-05-10T10:00:15;2.30;;;2.10;;
4821;SDS011;2425;47.794;13.068;2023-05-10T10:02:46;2.70;;;2.50;;
4821;SDS011;2425;47.794;13.068;2023-05-10T10:05:14;2.10;;;2.00;;
4821;SDS011;2425;47.794;13.068;2023-05-10T10:07:41;2.20;;;2.00;;
4821;SDS011;2425;47.794;13.068;2023-05-10T10:10:08;2.00;;;1.90;;
4821;SDS011;2425;47.794;13.068;2023-05-10T10:12:37;2.00;;;1.90;;
4821;SDS011;2425;47.794;13.068;2023-05-10T10:15:05;2.33;;;2.20;;
4821;SDS011;2425;47.794;13.068;2023-05-10T10:17:33;3.60;;;2.37;;
4821;SDS011;2425;47.794;13.068;2023-05-10T10:20:03;2.90;;;2.47;;
4821;SDS011;2425;47.794;13.068;2023-05-10T10:22:31;2.07;;;1.97;;
4821;SDS011;2425;47.794;13.068;2023-05-10T10:24:58;2.27;;;2.10;;
4821;SDS011;2425;47.794;13.068;2023-05-10T10:27:26;2.00;;;1.93;;
4821;SDS011;2425;47.794;13.068;2023-05-10T10:30:00;2.40;;;2.27;;
4821;SDS011;2425;47.794;13.068;2023-05-10T10:32:33;3.17;;;2.53;;
4821;SDS011;2425;47.794;13.068;2023-05-10T10:35:06;2.73;;;2.17;;
4821;SDS011;2425;47.794;13.068;2023-05-10T10:37:45;2.40;;;2.20;;
4821;SDS011;2425;47.794;13.068;2023-05-10T10:40:25;2.20;;;2.10;;
4821;SDS011;2425;47.794;13.068;2023-05-10T10:42:53;3.00;;;2.00;;
4821;SDS011;2425;47.794;13.068;2023-05-10T10:45:20;2.30;;;2.10;;
4821;SDS011;2425;47.794;13.068;2023-05-10T10:47:48;2.17;;;1.80;;
4821;SDS011;2425;47.794;13.068;2023-05-10T10:50:16;2.10;;;2.00;;
4821;SDS011;2425;47.794;13.068;2023-05-10T10:52:43;2.53;;;2.07;;
4821;SDS011;2425;47.794;13.068;2023-05-10T10:55:10;2.17;;;2.03;;
4821;SDS011;2425;47.794;13.068;2023-05-10T10:57:48;2.10;;;2.00;;
4821;SDS011;2425;47.794;13.068;2023-05-10T11:00:23;2.13;;;2.03;;
4821;SDS011;2425;47.794;13.068;2023-05-10T11:02:53;2.10;;;2.00;;
4821;SDS011;2425;47.794;13.068;2023-05-10T11:08:14;2.07;;;1.97;;
4821;SDS011;2425;47.794;13.068;2023-05-10T11:10:52;2.13;;;2.03;;
4821;SDS011;2425;47.794;13.068;2023-05-10T11:13:28;2.40;;;2.07;;
4821;SDS011;2425;47.794;13.068;2023-05-10T11:15:55;1.90;;;1.80;;
4821;SDS011;2425;47.794;13.068;2023-05-10T11:18:24;2.10;;;2.00;;
4821;SDS011;2425;47.794;13.068;2023-05-10T11:20:55;2.17;;;2.07;;
4821;SDS011;2425;47.794;13.068;2023-05-10T11:23:28;2.50;;;1.93;;
4821;SDS011;2425;47.794;13.068;2023-05-10T11:25:56;2.07;;;1.93;;
4821;SDS011;2425;47.794;13.068;2023-05-10T11:28:22;3.50;;;2.10;;
4821;SDS011;2425;47.794;13.068;2023-05-10T11:30:54;2.57;;;2.10;;
4821;SDS011;2425;47.794;13.068;2023-05-10T11:33:42;1.90;;;1.80;;
4821;SDS011;2425;47.794;13.068;2023-05-10T11:36:11;2.30;;;2.10;;
4821;SDS011;2425;47.794;13.068;2023-05-10T11:38:38;2.13;;;1.93;;
4821;SDS011;2425;47.794;13.068;2023-05-10T11:41:05;2.20;;;2.00;;
4821;SDS011;2425;47.794;13.068;2023-05-10T11:43:34;2.73;;;1.90;;
4821;SDS011;2425;47.794;13.068;2023-05-10T11:46:03;2.13;;;1.87;;
4821;SDS011;2425;47.794;13.068;2023-05-10T11:48:30;2.30;;;1.90;;
4821;SDS011;2425;47.794;13.068;2023-05-10T11:50:57;1.90;;;1.80;;
4821;SDS011;2425;47.794;13.068;2023-05-10T11:53:26;1.90;;;1.77;;
4821;SDS011;2425;47.794;13.068;2023-05-10T11:55:53;1.97;;;1.87;;
4821;SDS011;2425;47.794;13.068;2023-05-10T11:58:20;4.90;;;2.50;;
4821;SDS011;2425;47.794;13.068;2023-05-10T12:00:48;1.93;;;1.80;;
4821;SDS011;2425;47.794;13.068;2023-05-10T12:03:15;1.90;;;1.80;;
4821;SDS011;2425;47.794;13.068;2023-05-10T12:05:42;1.90;;;1.80;;
4821;SDS011;2425;47.794;13.068;2023-05-10T12:08:12;1.97;;;1.87;;
4821;SDS011;2425;47.794;13.068;2023-05-10T12:10:48;2.27;;;2.17;;
4821;SDS011;2425;47.794;13.068;2023-05-10T12:13:15;3.90;;;2.20;;
4821;SDS011;2425;47.794;13.068;2023-05-10T12:15:42;1.57;;;1.47;;
4821;SDS011;2425;47.794;13.068;2023-05-10T12:18:09;1.87;;;1.63;;
4821;SDS011;2425;47.794;13.068;2023-05-10T12:20:36;1.90;;;1.80;;
4821;SDS011;2425;47.794;13.068;2023-05-10T12:23:03;2.90;;;2.07;;
4821;SDS011;2425;47.794;13.068;2023-05-10T12:25:31;1.90;;;1.80;;
4821;SDS011;2425;47.794;13.068;2023-05-10T12:28:02;1.50;;;1.50;;
4821;SDS011;2425;47.794;13.068;2023-05-10T12:30:30;2.13;;;1.93;;
4821;SDS011;2425;47.794;13.068;2023-05-10T12:33:00;2.73;;;2.13;;
4821;SDS011;2425;47.794;13.068;2023-05-10T12:35:31;2.00;;;1.80;;
4821;SDS011;2425;47.794;13.068;2023-05-10T12:37:58;1.97;;;1.87;;
4821;SDS011;2425;47.794;13.068;2023-05-10T12:40:25;1.93;;;1.70;;
4821;SDS011;2425;47.794;13.068;2023-05-10T12:42:52;1.77;;;1.67;;
4821;SDS011;2425;47.794;13.068;2023-05-10T12:45:20;2.43;;;1.80;;
4821;SDS011;2425;47.794;13.068;2023-05-10T12:47:47;2.87;;;2.07;;
4821;SDS011;2425;47.794;13.068;2023-05-10T12:50:13;1.93;;;1.80;;
4821;SDS011;2425;47.794;13.068;2023-05-10T12:52:40;2.13;;;2.00;;
4821;SDS011;2425;47.794;13.068;2023-05-10T12:55:07;1.73;;;1.63;;
4821;SDS011;2425;47.794;13.068;2023-05-10T12:57:34;2.03;;;1.77;;
4821;SDS011;2425;47.794;13.068;2023-05-10T13:00:01;2.00;;;1.90;;
4821;SDS011;2425;47.794;13.068;2023-05-10T13:02:31;2.17;;;1.97;;
4821;SDS011;2425;47.794;13.068;2023-05-10T13:04:58;2.00;;;1.90;;
4821;SDS011;2425;47.794;13.068;2023-05-10T13:07:25;1.83;;;1.80;;
4821;SDS011;2425;47.794;13.068;2023-05-10T13:09:51;1.73;;;1.63;;
4821;SDS011;2425;47.794;13.068;2023-05-10T13:12:18;1.83;;;1.73;;
4821;SDS011;2425;47.794;13.068;2023-05-10T13:14:45;1.87;;;1.77;;
4821;SDS011;2425;47.794;13.068;2023-05-10T13:17:11;2.00;;;1.90;;
4821;SDS011;2425;47.794;13.068;2023-05-10T13:19:39;1.70;;;1.60;;
4821;SDS011;2425;47.794;13.068;2023-05-10T13:22:06;1.70;;;1.70;;
4821;SDS011;2425;47.794;13.068;2023-05-10T13:24:33;2.03;;;1.93;;
4821;SDS011;2425;47.794;13.068;2023-05-10T13:27:00;2.40;;;2.27;;
4821;SDS011;2425;47.794;13.068;2023-05-10T13:29:26;2.43;;;2.13;;
4821;SDS011;2425;47.794;13.068;2023-05-10T13:31:53;2.07;;;1.97;;
4821;SDS011;2425;47.794;13.068;2023-05-10T13:34:20;1.83;;;1.73;;
4821;SDS011;2425;47.794;13.068;2023-05-10T13:36:48;2.10;;;1.90;;
4821;SDS011;2425;47.794;13.068;2023-05-10T13:39:14;1.93;;;1.83;;
4821;SDS011;2425;47.794;13.068;2023-05-10T13:41:41;1.80;;;1.70;;
4821;SDS011;2425;47.794;13.068;2023-05-10T13:44:08;1.97;;;1.83;;
4821;SDS011;2425;47.794;13.068;2023-05-10T13:46:37;1.30;;;1.30;;
4821;SDS011;2425;47.794;13.068;2023-05-10T13:49:03;1.73;;;1.70;;
4821;SDS011;2425;47.794;13.068;2023-05-10T13:51:30;2.00;;;1.90;;
4821;SDS011;2425;47.794;13.068;2023-05-10T13:53:59;1.63;;;1.63;;
4821;SDS011;2425;47.794;13.068;2023-05-10T13:56:25;2.03;;;1.77;;
4821;SDS011;2425;47.794;13.068;2023-05-10T13:58:52;1.63;;;1.53;;
4821;SDS011;2425;47.794;13.068;2023-05-10T14:01:19;1.90;;;1.80;;
4821;SDS011;2425;47.794;13.068;2023-05-10T14:03:46;2.23;;;1.80;;
4821;SDS011;2425;47.794;13.068;2023-05-10T14:06:13;1.73;;;1.63;;
4821;SDS011;2425;47.794;13.068;2023-05-10T14:08:39;1.50;;;1.50;;
4821;SDS011;2425;47.794;13.068;2023-05-10T14:11:07;1.43;;;1.43;;
4821;SDS011;2425;47.794;13.068;2023-05-10T14:13:34;1.10;;;1.10;;
4821;SDS011;2425;47.794;13.068;2023-05-10T14:16:01;1.60;;;1.60;;
4821;SDS011;2425;47.794;13.068;2023-05-10T14:18:28;1.57;;;1.47;;
4821;SDS011;2425;47.794;13.068;2023-05-10T14:20:55;1.77;;;1.67;;
4821;SDS011;2425;47.794;13.068;2023-05-10T14:23:21;1.83;;;1.73;;
4821;SDS011;2425;47.794;13.068;2023-05-10T14:25:50;1.60;;;1.50;;
4821;SDS011;2425;47.794;13.068;2023-05-10T14:28:18;1.93;;;1.80;;
4821;SDS011;2425;47.794;13.068;2023-05-10T14:30:45;2.07;;;1.87;;
4821;SDS011;2425;47.794;13.068;2023-05-10T14:33:12;1.67;;;1.57;;
4821;SDS011;2425;47.794;13.068;2023-05-10T14:35:39;1.80;;;1.80;;
4821;SDS011;2425;47.794;13.068;2023-05-10T14:38:06;1.70;;;1.63;;
4821;SDS011;2425;47.794;13.068;2023-05-10T14:40:32;1.83;;;1.73;;
4821;SDS011;2425;47.794;13.068;2023-05-10T14:42:59;1.93;;;1.83;;
4821;SDS011;2425;47.794;13.068;2023-05-10T14:45:27;1.80;;;1.70;;
4821;SDS011;2425;47.794;13.068;2023-05-10T14:47:54;1.40;;;1.30;;
4821;SDS011;2425;47.794;13.068;2023-05-10T14:50:21;1.53;;;1.50;;
4821;SDS011;2425;47.794;13.068;2023-05-10T14:52:47;1.57;;;1.57;;
4821;SDS011;2425;47.794;13.068;2023-05-10T14:55:15;1.53;;;1.53;;
4821;SDS011;2425;47.794;13.068;2023-05-10T14:57:42;1.60;;;1.50;;
4821;SDS011;2425;47.794;13.068;2023-05-10T15:00:09;1.40;;;1.30;;
4821;SDS011;2425;47.794;13.068;2023-05-10T15:02:38;1.30;;;1.30;;
4821;SDS011;2425;47.794;13.068;2023-05-10T15:05:05;1.50;;;1.40;;
4821;SDS011;2425;47.794;13.068;2023-05-10T15:07:32;1.77;;;1.67;;
4821;SDS011;2425;47.794;13.068;2023-05-10T15:09:59;1.20;;;1.20;;